sensor_id;sensor_type;location;lat;lon;timestamp;P1;durP1;ratioP1;P2;durP2;ratioP2
71164;SDS011;58859;55.132;-1.586;2023-02-02T00:00:49;2.67;;;1.07;;
71164;SDS011;58859;55.132;-1.586;2023-02-02T00:03:15;2.93;;;1.50;;
71164;SDS011;58859;55.132;-1.586;2023-02-02T00:05:48;1.85;;;1.13;;
71164;SDS011;58859;55.132;-1.586;2023-02-02T00:08:17;2.80;;;0.88;;
71164;SDS011;58859;55.132;-1.586;2023-02-02T00:10:44;1.02;;;0.90;;
71164;SDS011;58859;55.132;-1.586;2023-02-02T00:13:10;3.78;;;1.40;;
71164;SDS011;58859;55.132;-1.586;2023-02-02T00:15:35;1.88;;;0.80;;
71164;SDS011;58859;55.132;-1.586;2023-02-02T00:18:01;0.83;;;0.60;;
71164;SDS011;58859;55.132;-1.586;2023-02-02T00:20:26;4.77;;;1.20;;
71164;SDS011;58859;55.132;-1.586;2023-02-02T00:22:52;3.77;;;1.00;;
71164;SDS011;58859;55.132;-1.586;2023-02-02T00:25:17;3.63;;;1.27;;
71164;SDS011;58859;55.132;-1.586;2023-02-02T00:27:43;3.53;;;1.27;;
71164;SDS011;58859;55.132;-1.586;2023-02-02T00:30:08;4.00;;;1.53;;
71164;SDS011;58859;55.132;-1.586;2023-02-02T00:32:34;3.70;;;1.10;;
71164;SDS011;58859;55.132;-1.586;2023-02-02T00:35:01;4.60;;;1.20;;
71164;SDS011;58859;55.132;-1.586;2023-02-02T00:37:29;2.22;;;0.77;;
71164;SDS011;58859;55.132;-1.586;2023-02-02T00:39:54;4.10;;;1.20;;
71164;SDS011;58859;55.132;-1.586;2023-02-02T00:42:19;6.37;;;1.20;;
71164;SDS011;58859;55.132;-1.586;2023-02-02T00:44:45;4.63;;;1.43;;
71164;SDS011;58859;55.132;-1.586;2023-02-02T00:47:29;5.85;;;1.02;;
71164;SDS011;58859;55.132;-1.586;2023-02-02T00:49:54;3.60;;;1.10;;
71164;SDS011;58859;55.132;-1.586;2023-02-02T00:52:19;3.47;;;1.37;;
71164;SDS011;58859;55.132;-1.586;2023-02-02T00:54:45;4.80;;;1.10;;
71164;SDS011;58859;55.132;-1.586;2023-02-02T00:57:12;3.97;;;1.40;;
71164;SDS011;58859;55.132;-1.586;2023-02-02T00:59:38;4.20;;;1.40;;
71164;SDS011;58859;55.132;-1.586;2023-02-02T01:02:03;5.43;;;1.50;;
71164;SDS011;58859;55.132;-1.586;2023-02-02T01:04:29;3.30;;;1.37;;
71164;SDS011;58859;55.132;-1.586;2023-02-02T01:06:54;3.27;;;1.43;;
71164;SDS011;58859;55.132;-1.586;2023-02-02T01:09:20;6.78;;;1.40;;
71164;SDS011;58859;55.132;-1.586;2023-02-02T01:11:45;8.10;;;1.70;;
71164;SDS011;58859;55.132;-1.586;2023-02-02T01:14:11;5.90;;;1.63;;
71164;SDS011;58859;55.132;-1.586;2023-02-02T01:16:36;7.60;;;1.67;;
71164;SDS011;58859;55.132;-1.586;2023-02-02T01:19:01;6.43;;;1.87;;
71164;SDS011;58859;55.132;-1.586;2023-02-02T01:21:27;5.40;;;1.77;;
71164;SDS011;58859;55.132;-1.586;2023-02-02T01:23:52;6.63;;;1.90;;
71164;SDS011;58859;55.132;-1.586;2023-02-02T01:26:18;6.70;;;1.97;;
71164;SDS011;58859;55.132;-1.586;2023-02-02T01:28:43;14.40;;;2.40;;
71164;SDS011;58859;55.132;-1.586;2023-02-02T01:31:13;8.87;;;1.40;;
71164;SDS011;58859;55.132;-1.586;2023-02-02T01:33:43;3.90;;;1.60;;
71164;SDS011;58859;55.132;-1.586;2023-02-02T01:36:13;7.13;;;2.22;;
71164;SDS011;58859;55.132;-1.586;2023-02-02T01:38:43;7.63;;;1.33;;
71164;SDS011;58859;55.132;-1.586;2023-02-02T01:41:12;7.30;;;2.00;;
71164;SDS011;58859;55.132;-1.586;2023-02-02T01:46:06;9.07;;;1.87;;
71164;SDS011;58859;55.132;-1.586;2023-02-02T01:48:34;6.18;;;1.55;;
71164;SDS011;58859;55.132;-1.586;2023-02-02T01:51:00;5.03;;;1.80;;
71164;SDS011;58859;55.132;-1.586;2023-02-02T01:53:28;5.68;;;1.73;;
71164;SDS011;58859;55.132;-1.586;2023-02-02T01:55:54;6.43;;;1.80;;
71164;SDS011;58859;55.132;-1.586;2023-02-02T01:58:21;8.07;;;2.20;;
71164;SDS011;58859;55.132;-1.586;2023-02-02T02:00:48;7.07;;;2.13;;
71164;SDS011;58859;55.132;-1.586;2023-02-02T02:03:15;3.28;;;1.75;;
71164;SDS011;58859;55.132;-1.586;2023-02-02T02:06:04;6.25;;;1.77;;
71164;SDS011;58859;55.132;-1.586;2023-02-02T02:08:38;8.45;;;1.88;;
71164;SDS011;58859;55.132;-1.586;2023-02-02T02:11:06;9.50;;;2.20;;
71164;SDS011;58859;55.132;-1.586;2023-02-02T02:13:33;10.18;;;1.80;;
71164;SDS011;58859;55.132;-1.586;2023-02-02T02:16:38;4.63;;;1.20;;
71164;SDS011;58859;55.132;-1.586;2023-02-02T02:19:29;5.75;;;1.55;;
71164;SDS011;58859;55.132;-1.586;2023-02-02T02:25:06;6.57;;;2.35;;
71164;SDS011;58859;55.132;-1.586;2023-02-02T02:28:21;5.57;;;2.55;;
71164;SDS011;58859;55.132;-1.586;2023-02-02T02:31:18;3.90;;;1.63;;
71164;SDS011;58859;55.132;-1.586;2023-02-02T02:34:15;5.95;;;1.50;;
71164;SDS011;58859;55.132;-1.586;2023-02-02T02:39:17;2.92;;;1.35;;
71164;SDS011;58859;55.132;-1.586;2023-02-02T02:41:51;2.00;;;1.33;;
71164;SDS011;58859;55.132;-1.586;2023-02-02T02:44:19;7.97;;;1.43;;
71164;SDS011;58859;55.132;-1.586;2023-02-02T02:46:46;1.17;;;0.80;;
71164;SDS011;58859;55.132;-1.586;2023-02-02T02:49:12;3.22;;;1.20;;
71164;SDS011;58859;55.132;-1.586;2023-02-02T02:54:07;2.63;;;1.27;;
71164;SDS011;58859;55.132;-1.586;2023-02-02T02:56:36;3.70;;;1.05;;
71164;SDS011;58859;55.132;-1.586;2023-02-02T03:01:38;3.23;;;1.00;;
71164;SDS011;58859;55.132;-1.586;2023-02-02T03:04:11;3.22;;;2.10;;
71164;SDS011;58859;55.132;-1.586;2023-02-02T03:09:38;3.72;;;1.38;;
71164;SDS011;58859;55.132;-1.586;2023-02-02T03:12:06;1.02;;;0.85;;
71164;SDS011;58859;55.132;-1.586;2023-02-02T03:14:34;4.27;;;1.03;;
71164;SDS011;58859;55.132;-1.586;2023-02-02T03:17:01;4.30;;;1.50;;
71164;SDS011;58859;55.132;-1.586;2023-02-02T03:19:26;4.00;;;1.37;;
71164;SDS011;58859;55.132;-1.586;2023-02-02T03:21:51;6.13;;;1.60;;
71164;SDS011;58859;55.132;-1.586;2023-02-02T03:24:17;4.73;;;1.57;;
71164;SDS011;58859;55.132;-1.586;2023-02-02T03:26:43;2.80;;;1.33;;
71164;SDS011;58859;55.132;-1.586;2023-02-02T03:29:09;3.40;;;1.55;;
71164;SDS011;58859;55.132;-1.586;2023-02-02T03:31:34;5.53;;;1.30;;
71164;SDS011;58859;55.132;-1.586;2023-02-02T03:33:59;1.73;;;1.13;;
71164;SDS011;58859;55.132;-1.586;2023-02-02T03:36:25;4.85;;;1.30;;
71164;SDS011;58859;55.132;-1.586;2023-02-02T03:38:51;2.33;;;1.30;;
71164;SDS011;58859;55.132;-1.586;2023-02-02T03:41:17;4.30;;;1.20;;
71164;SDS011;58859;55.132;-1.586;2023-02-02T03:43:42;4.00;;;1.30;;
71164;SDS011;58859;55.132;-1.586;2023-02-02T03:46:08;3.07;;;1.20;;
71164;SDS011;58859;55.132;-1.586;2023-02-02T03:48:34;3.37;;;1.20;;
71164;SDS011;58859;55.132;-1.586;2023-02-02T03:51:03;1.90;;;1.10;;
71164;SDS011;58859;55.132;-1.586;2023-02-02T03:53:32;1.90;;;1.40;;
71164;SDS011;58859;55.132;-1.586;2023-02-02T03:55:58;1.90;;;1.17;;
71164;SDS011;58859;55.132;-1.586;2023-02-02T03:58:23;2.40;;;1.40;;
71164;SDS011;58859;55.132;-1.586;2023-02-02T04:00:49;4.07;;;0.83;;
71164;SDS011;58859;55.132;-1.586;2023-02-02T04:03:14;2.10;;;1.23;;
71164;SDS011;58859;55.132;-1.586;2023-02-02T04:05:39;1.37;;;1.27;;
71164;SDS011;58859;55.132;-1.586;2023-02-02T04:08:05;3.40;;;1.53;;
71164;SDS011;58859;55.132;-1.586;2023-02-02T04:10:30;3.10;;;1.40;;
71164;SDS011;58859;55.132;-1.586;2023-02-02T04:12:56;3.47;;;1.73;;
71164;SDS011;58859;55.132;-1.586;2023-02-02T04:15:21;2.58;;;1.15;;
71164;SDS011;58859;55.132;-1.586;2023-02-02T04:17:46;2.75;;;1.40;;
71164;SDS011;58859;55.132;-1.586;2023-02-02T04:20:12;5.43;;;1.30;;
71164;SDS011;58859;55.132;-1.586;2023-02-02T04:22:37;1.13;;;0.87;;
71164;SDS011;58859;55.132;-1.586;2023-02-02T04:25:03;3.67;;;0.80;;
71164;SDS011;58859;55.132;-1.586;2023-02-02T04:27:28;1.30;;;1.20;;
71164;SDS011;58859;55.132;-1.586;2023-02-02T04:29:56;1.63;;;1.00;;
71164;SDS011;58859;55.132;-1.586;2023-02-02T04:32:22;1.20;;;1.10;;
71164;SDS011;58859;55.132;-1.586;2023-02-02T04:34:47;2.10;;;1.10;;
71164;SDS011;58859;55.132;-1.586;2023-02-02T04:37:12;1.10;;;0.97;;
71164;SDS011;58859;55.132;-1.586;2023-02-02T04:39:38;0.80;;;0.80;;
71164;SDS011;58859;55.132;-1.586;2023-02-02T04:42:03;0.80;;;0.80;;
71164;SDS011;58859;55.132;-1.586;2023-02-02T04:44:28;1.13;;;1.03;;
71164;SDS011;58859;55.132;-1.586;2023-02-02T04:46:54;1.50;;;1.10;;
71164;SDS011;58859;55.132;-1.586;2023-02-02T04:49:19;0.77;;;0.77;;
71164;SDS011;58859;55.132;-1.586;2023-02-02T04:51:46;0.50;;;0.50;;
71164;SDS011;58859;55.132;-1.586;2023-02-02T04:54:11;1.13;;;0.63;;
71164;SDS011;58859;55.132;-1.586;2023-02-02T04:56:37;0.50;;;0.50;;
71164;SDS011;58859;55.132;-1.586;2023-02-02T04:59:02;1.17;;;0.83;;
71164;SDS011;58859;55.132;-1.586;2023-02-02T05:01:27;0.60;;;0.60;;
71164;SDS011;58859;55.132;-1.586;2023-02-02T05:03:55;0.30;;;0.30;;
71164;SDS011;58859;55.132;-1.586;2023-02-02T05:06:20;0.65;;;0.55;;
71164;SDS011;58859;55.132;-1.586;2023-02-02T05:08:46;0.67;;;0.67;;
71164;SDS011;58859;55.132;-1.586;2023-02-02T05:11:14;0.50;;;0.50;;
71164;SDS011;58859;55.132;-1.586;2023-02-02T05:13:51;0.40;;;0.40;;
71164;SDS011;58859;55.132;-1.586;2023-02-02T05:16:18;0.70;;;0.70;;
71164;SDS011;58859;55.132;-1.586;2023-02-02T05:18:53;1.27;;;0.75;;
71164;SDS011;58859;55.132;-1.586;2023-02-02T05:21:20;0.68;;;0.68;;
71164;SDS011;58859;55.132;-1.586;2023-02-02T05:23:46;0.67;;;0.60;;
71164;SDS011;58859;55.132;-1.586;2023-02-02T05:26:16;0.47;;;0.40;;
71164;SDS011;58859;55.132;-1.586;2023-02-02T05:28:43;0.45;;;0.45;;
71164;SDS011;58859;55.132;-1.586;2023-02-02T05:31:09;0.73;;;0.60;;
71164;SDS011;58859;55.132;-1.586;2023-02-02T05:33:34;0.67;;;0.67;;
71164;SDS011;58859;55.132;-1.586;2023-02-02T05:36:00;0.70;;;0.70;;
71164;SDS011;58859;55.132;-1.586;2023-02-02T05:38:25;0.60;;;0.60;;
71164;SDS011;58859;55.132;-1.586;2023-02-02T05:40:50;0.93;;;0.67;;
71164;SDS011;58859;55.132;-1.586;2023-02-02T05:43:16;1.13;;;0.70;;
71164;SDS011;58859;55.132;-1.586;2023-02-02T05:45:41;1.03;;;0.60;;
71164;SDS011;58859;55.132;-1.586;2023-02-02T05:48:07;2.87;;;0.80;;
71164;SDS011;58859;55.132;-1.586;2023-02-02T05:50:34;2.03;;;1.13;;
71164;SDS011;58859;55.132;-1.586;2023-02-02T05:53:00;1.70;;;0.80;;
71164;SDS011;58859;55.132;-1.586;2023-02-02T05:55:25;3.50;;;0.75;;
71164;SDS011;58859;55.132;-1.586;2023-02-02T05:57:51;1.57;;;1.23;;
71164;SDS011;58859;55.132;-1.586;2023-02-02T06:00:16;0.50;;;0.43;;
71164;SDS011;58859;55.132;-1.586;2023-02-02T06:02:42;1.02;;;1.02;;
71164;SDS011;58859;55.132;-1.586;2023-02-02T06:05:07;1.63;;;0.80;;
71164;SDS011;58859;55.132;-1.586;2023-02-02T06:07:33;2.33;;;0.70;;
71164;SDS011;58859;55.132;-1.586;2023-02-02T06:09:58;1.80;;;0.70;;
71164;SDS011;58859;55.132;-1.586;2023-02-02T06:12:24;7.35;;;1.30;;
71164;SDS011;58859;55.132;-1.586;2023-02-02T06:14:49;2.20;;;1.20;;
71164;SDS011;58859;55.132;-1.586;2023-02-02T06:17:14;0.77;;;0.77;;
71164;SDS011;58859;55.132;-1.586;2023-02-02T06:19:40;0.93;;;0.93;;
71164;SDS011;58859;55.132;-1.586;2023-02-02T06:22:05;1.60;;;1.03;;
71164;SDS011;58859;55.132;-1.586;2023-02-02T06:24:31;0.77;;;0.77;;
71164;SDS011;58859;55.132;-1.586;2023-02-02T06:26:56;1.90;;;0.80;;
71164;SDS011;58859;55.132;-1.586;2023-02-02T06:29:22;2.77;;;0.90;;
71164;SDS011;58859;55.132;-1.586;2023-02-02T06:31:47;0.93;;;0.90;;
71164;SDS011;58859;55.132;-1.586;2023-02-02T06:34:12;1.00;;;0.63;;
71164;SDS011;58859;55.132;-1.586;2023-02-02T06:36:38;2.40;;;0.75;;
71164;SDS011;58859;55.132;-1.586;2023-02-02T06:39:04;1.15;;;0.47;;
71164;SDS011;58859;55.132;-1.586;2023-02-02T06:41:32;1.88;;;0.93;;
71164;SDS011;58859;55.132;-1.586;2023-02-02T06:43:58;0.50;;;0.50;;
71164;SDS011;58859;55.132;-1.586;2023-02-02T06:46:23;2.28;;;0.80;;
71164;SDS011;58859;55.132;-1.586;2023-02-02T06:48:48;1.88;;;0.70;;
71164;SDS011;58859;55.132;-1.586;2023-02-02T06:51:14;1.27;;;0.77;;
71164;SDS011;58859;55.132;-1.586;2023-02-02T06:53:39;1.07;;;0.70;;
71164;SDS011;58859;55.132;-1.586;2023-02-02T06:56:05;1.90;;;0.87;;
71164;SDS011;58859;55.132;-1.586;2023-02-02T06:58:32;1.25;;;1.00;;
71164;SDS011;58859;55.132;-1.586;2023-02-02T07:01:01;1.55;;;0.80;;
71164;SDS011;58859;55.132;-1.586;2023-02-02T07:03:30;1.10;;;0.70;;
71164;SDS011;58859;55.132;-1.586;2023-02-02T07:05:56;1.63;;;1.10;;
71164;SDS011;58859;55.132;-1.586;2023-02-02T07:08:21;2.10;;;0.82;;
71164;SDS011;58859;55.132;-1.586;2023-02-02T07:10:47;0.80;;;0.80;;
71164;SDS011;58859;55.132;-1.586;2023-02-02T07:13:12;0.80;;;0.80;;
71164;SDS011;58859;55.132;-1.586;2023-02-02T07:15:38;2.27;;;0.70;;
71164;SDS011;58859;55.132;-1.586;2023-02-02T07:18:03;3.33;;;0.80;;
71164;SDS011;58859;55.132;-1.586;2023-02-02T07:20:29;0.60;;;0.60;;
71164;SDS011;58859;55.132;-1.586;2023-02-02T07:22:55;2.63;;;1.08;;
71164;SDS011;58859;55.132;-1.586;2023-02-02T07:25:20;0.75;;;0.73;;
71164;SDS011;58859;55.132;-1.586;2023-02-02T07:27:46;1.00;;;0.80;;
71164;SDS011;58859;55.132;-1.586;2023-02-02T07:30:14;2.30;;;0.90;;
71164;SDS011;58859;55.132;-1.586;2023-02-02T07:32:44;2.25;;;1.20;;
71164;SDS011;58859;55.132;-1.586;2023-02-02T07:35:11;0.73;;;0.60;;
71164;SDS011;58859;55.132;-1.586;2023-02-02T07:37:36;3.47;;;0.93;;
71164;SDS011;58859;55.132;-1.586;2023-02-02T07:40:02;8.63;;;1.07;;
71164;SDS011;58859;55.132;-1.586;2023-02-02T07:42:27;2.33;;;0.97;;
71164;SDS011;58859;55.132;-1.586;2023-02-02T07:44:52;1.63;;;0.70;;
71164;SDS011;58859;55.132;-1.586;2023-02-02T07:47:18;4.00;;;1.25;;
71164;SDS011;58859;55.132;-1.586;2023-02-02T07:49:43;1.70;;;1.33;;
71164;SDS011;58859;55.132;-1.586;2023-02-02T07:52:09;1.60;;;0.82;;
71164;SDS011;58859;55.132;-1.586;2023-02-02T07:54:35;1.03;;;0.93;;
71164;SDS011;58859;55.132;-1.586;2023-02-02T07:57:00;1.93;;;1.10;;
71164;SDS011;58859;55.132;-1.586;2023-02-02T07:59:26;0.70;;;0.70;;
71164;SDS011;58859;55.132;-1.586;2023-02-02T08:01:51;0.68;;;0.68;;
71164;SDS011;58859;55.132;-1.586;2023-02-02T08:04:17;2.50;;;1.10;;
71164;SDS011;58859;55.132;-1.586;2023-02-02T08:06:42;3.37;;;0.80;;
71164;SDS011;58859;55.132;-1.586;2023-02-02T08:09:08;4.43;;;1.35;;
71164;SDS011;58859;55.132;-1.586;2023-02-02T08:11:35;2.27;;;1.00;;
71164;SDS011;58859;55.132;-1.586;2023-02-02T08:14:02;2.60;;;1.02;;
71164;SDS011;58859;55.132;-1.586;2023-02-02T08:16:28;1.27;;;1.02;;
71164;SDS011;58859;55.132;-1.586;2023-02-02T08:18:55;3.28;;;1.05;;
71164;SDS011;58859;55.132;-1.586;2023-02-02T08:21:20;2.67;;;1.10;;
71164;SDS011;58859;55.132;-1.586;2023-02-02T08:23:46;1.33;;;1.15;;
71164;SDS011;58859;55.132;-1.586;2023-02-02T08:26:13;2.55;;;0.95;;
71164;SDS011;58859;55.132;-1.586;2023-02-02T08:28:41;1.75;;;1.02;;
71164;SDS011;58859;55.132;-1.586;2023-02-02T08:31:09;1.10;;;0.93;;
71164;SDS011;58859;55.132;-1.586;2023-02-02T08:33:36;2.00;;;0.75;;
71164;SDS011;58859;55.132;-1.586;2023-02-02T08:36:02;0.60;;;0.60;;
71164;SDS011;58859;55.132;-1.586;2023-02-02T08:38:28;0.60;;;0.60;;
71164;SDS011;58859;55.132;-1.586;2023-02-02T08:40:53;1.20;;;0.67;;
71164;SDS011;58859;55.132;-1.586;2023-02-02T08:43:19;2.10;;;0.77;;
71164;SDS011;58859;55.132;-1.586;2023-02-02T08:45:44;2.17;;;1.50;;
71164;SDS011;58859;55.132;-1.586;2023-02-02T08:48:10;1.90;;;0.67;;
71164;SDS011;58859;55.132;-1.586;2023-02-02T08:50:36;0.75;;;0.75;;
71164;SDS011;58859;55.132;-1.586;2023-02-02T08:53:02;1.00;;;0.93;;
71164;SDS011;58859;55.132;-1.586;2023-02-02T08:55:28;1.77;;;1.13;;
71164;SDS011;58859;55.132;-1.586;2023-02-02T08:57:53;2.15;;;0.85;;
71164;SDS011;58859;55.132;-1.586;2023-02-02T09:00:18;1.30;;;0.90;;
71164;SDS011;58859;55.132;-1.586;2023-02-02T09:02:44;2.83;;;0.77;;
71164;SDS011;58859;55.132;-1.586;2023-02-02T09:05:14;2.13;;;1.00;;
71164;SDS011;58859;55.132;-1.586;2023-02-02T09:07:39;1.73;;;1.30;;
71164;SDS011;58859;55.132;-1.586;2023-02-02T09:10:05;0.50;;;0.50;;
71164;SDS011;58859;55.132;-1.586;2023-02-02T09:12:31;2.60;;;0.88;;
71164;SDS011;58859;55.132;-1.586;2023-02-02T09:14:56;4.13;;;1.10;;
71164;SDS011;58859;55.132;-1.586;2023-02-02T09:17:21;3.73;;;1.07;;
71164;SDS011;58859;55.132;-1.586;2023-02-02T09:19:48;0.95;;;0.60;;
71164;SDS011;58859;55.132;-1.586;2023-02-02T09:22:14;1.33;;;0.57;;
71164;SDS011;58859;55.132;-1.586;2023-02-02T09:24:39;0.97;;;0.90;;
71164;SDS011;58859;55.132;-1.586;2023-02-02T09:27:04;2.17;;;1.20;;
71164;SDS011;58859;55.132;-1.586;2023-02-02T09:29:30;2.57;;;0.60;;
71164;SDS011;58859;55.132;-1.586;2023-02-02T09:31:55;1.50;;;0.57;;
71164;SDS011;58859;55.132;-1.586;2023-02-02T09:34:21;2.45;;;0.60;;
71164;SDS011;58859;55.132;-1.586;2023-02-02T09:36:47;2.30;;;1.03;;
71164;SDS011;58859;55.132;-1.586;2023-02-02T09:39:12;0.80;;;0.80;;
71164;SDS011;58859;55.132;-1.586;2023-02-02T09:49:22;0.50;;;0.50;;
71164;SDS011;58859;55.132;-1.586;2023-02-02T09:54:51;3.10;;;0.97;;
71164;SDS011;58859;55.132;-1.586;2023-02-02T09:57:25;0.52;;;0.50;;
71164;SDS011;58859;55.132;-1.586;2023-02-02T09:59:55;1.33;;;0.65;;
71164;SDS011;58859;55.132;-1.586;2023-02-02T10:02:23;1.60;;;0.75;;
71164;SDS011;58859;55.132;-1.586;2023-02-02T10:04:53;1.15;;;0.80;;
71164;SDS011;58859;55.132;-1.586;2023-02-02T10:07:26;4.72;;;0.88;;
71164;SDS011;58859;55.132;-1.586;2023-02-02T10:23:23;1.40;;;0.50;;
71164;SDS011;58859;55.132;-1.586;2023-02-02T10:34:00;0.63;;;0.63;;
71164;SDS011;58859;55.132;-1.586;2023-02-02T10:36:32;1.23;;;0.40;;
71164;SDS011;58859;55.132;-1.586;2023-02-02T10:41:58;1.25;;;0.90;;
71164;SDS011;58859;55.132;-1.586;2023-02-02T10:45:14;0.73;;;0.73;;
71164;SDS011;58859;55.132;-1.586;2023-02-02T10:47:25;0.60;;;0.60;;
71164;SDS011;58859;55.132;-1.586;2023-02-02T10:49:54;0.65;;;0.50;;
71164;SDS011;58859;55.132;-1.586;2023-02-02T10:52:33;0.40;;;0.28;;
71164;SDS011;58859;55.132;-1.586;2023-02-02T10:55:35;0.73;;;0.70;;
71164;SDS011;58859;55.132;-1.586;2023-02-02T10:57:52;1.08;;;0.40;;
71164;SDS011;58859;55.132;-1.586;2023-02-02T11:03:03;0.60;;;0.60;;
71164;SDS011;58859;55.132;-1.586;2023-02-02T11:05:31;0.68;;;0.60;;
71164;SDS011;58859;55.132;-1.586;2023-02-02T11:08:17;7.03;;;0.98;;
71164;SDS011;58859;55.132;-1.586;2023-02-02T11:10:45;2.17;;;0.80;;
71164;SDS011;58859;55.132;-1.586;2023-02-02T11:13:18;0.75;;;0.73;;
71164;SDS011;58859;55.132;-1.586;2023-02-02T11:18:39;0.52;;;0.52;;
71164;SDS011;58859;55.132;-1.586;2023-02-02T11:21:19;0.50;;;0.50;;
71164;SDS011;58859;55.132;-1.586;2023-02-02T11:26:52;0.38;;;0.30;;
71164;SDS011;58859;55.132;-1.586;2023-02-02T11:31:57;0.60;;;0.60;;
71164;SDS011;58859;55.132;-1.586;2023-02-02T11:34:49;1.42;;;0.70;;
71164;SDS011;58859;55.132;-1.586;2023-02-02T11:43:15;0.90;;;0.73;;
71164;SDS011;58859;55.132;-1.586;2023-02-02T11:45:43;0.32;;;0.32;;
71164;SDS011;58859;55.132;-1.586;2023-02-02T11:48:16;0.40;;;0.40;;
71164;SDS011;58859;55.132;-1.586;2023-02-02T11:50:44;0.68;;;0.40;;
71164;SDS011;58859;55.132;-1.586;2023-02-02T11:55:49;0.60;;;0.60;;
71164;SDS011;58859;55.132;-1.586;2023-02-02T11:58:17;0.38;;;0.38;;
71164;SDS011;58859;55.132;-1.586;2023-02-02T12:00:47;0.97;;;0.40;;
71164;SDS011;58859;55.132;-1.586;2023-02-02T12:03:27;1.55;;;0.40;;
71164;SDS011;58859;55.132;-1.586;2023-02-02T12:05:55;1.70;;;0.60;;
71164;SDS011;58859;55.132;-1.586;2023-02-02T12:08:21;0.10;;;0.10;;
71164;SDS011;58859;55.132;-1.586;2023-02-02T12:10:53;0.30;;;0.30;;
71164;SDS011;58859;55.132;-1.586;2023-02-02T12:16:01;0.52;;;0.52;;
71164;SDS011;58859;55.132;-1.586;2023-02-02T12:26:44;1.20;;;0.45;;
71164;SDS011;58859;55.132;-1.586;2023-02-02T12:29:40;1.27;;;1.20;;
71164;SDS011;58859;55.132;-1.586;2023-02-02T12:46:53;1.27;;;0.47;;
71164;SDS011;58859;55.132;-1.586;2023-02-02T12:49:34;0.30;;;0.30;;
71164;SDS011;58859;55.132;-1.586;2023-02-02T12:57:20;0.45;;;0.45;;
71164;SDS011;58859;55.132;-1.586;2023-02-02T13:00:20;0.93;;;0.75;;
71164;SDS011;58859;55.132;-1.586;2023-02-02T13:03:19;4.70;;;1.27;;
71164;SDS011;58859;55.132;-1.586;2023-02-02T13:06:02;0.90;;;0.90;;
71164;SDS011;58859;55.132;-1.586;2023-02-02T13:11:37;0.60;;;0.60;;
71164;SDS011;58859;55.132;-1.586;2023-02-02T13:14:24;0.65;;;0.65;;
71164;SDS011;58859;55.132;-1.586;2023-02-02T13:16:53;1.58;;;0.60;;
71164;SDS011;58859;55.132;-1.586;2023-02-02T13:19:33;0.80;;;0.52;;
71164;SDS011;58859;55.132;-1.586;2023-02-02T13:22:02;0.63;;;0.55;;
71164;SDS011;58859;55.132;-1.586;2023-02-02T13:24:30;0.43;;;0.20;;
71164;SDS011;58859;55.132;-1.586;2023-02-02T13:26:58;2.10;;;0.68;;
71164;SDS011;58859;55.132;-1.586;2023-02-02T13:29:29;1.33;;;0.60;;
71164;SDS011;58859;55.132;-1.586;2023-02-02T13:32:28;2.65;;;0.70;;
71164;SDS011;58859;55.132;-1.586;2023-02-02T13:38:00;2.28;;;0.55;;
71164;SDS011;58859;55.132;-1.586;2023-02-02T13:40:33;0.30;;;0.30;;
71164;SDS011;58859;55.132;-1.586;2023-02-02T13:53:29;1.00;;;0.57;;
71164;SDS011;58859;55.132;-1.586;2023-02-02T14:01:13;2.53;;;1.00;;
71164;SDS011;58859;55.132;-1.586;2023-02-02T14:03:42;0.47;;;0.40;;
71164;SDS011;58859;55.132;-1.586;2023-02-02T14:06:16;2.45;;;0.57;;
71164;SDS011;58859;55.132;-1.586;2023-02-02T14:08:47;0.40;;;0.40;;
71164;SDS011;58859;55.132;-1.586;2023-02-02T14:11:17;1.13;;;0.52;;
71164;SDS011;58859;55.132;-1.586;2023-02-02T14:13:49;4.20;;;0.55;;
71164;SDS011;58859;55.132;-1.586;2023-02-02T14:19:03;1.10;;;0.60;;
71164;SDS011;58859;55.132;-1.586;2023-02-02T14:23:56;4.17;;;1.00;;
71164;SDS011;58859;55.132;-1.586;2023-02-02T14:26:47;4.28;;;0.65;;
71164;SDS011;58859;55.132;-1.586;2023-02-02T14:34:28;2.07;;;0.70;;
71164;SDS011;58859;55.132;-1.586;2023-02-02T14:36:57;0.60;;;0.50;;
71164;SDS011;58859;55.132;-1.586;2023-02-02T14:39:33;2.72;;;0.77;;
71164;SDS011;58859;55.132;-1.586;2023-02-02T14:42:10;1.92;;;0.80;;
71164;SDS011;58859;55.132;-1.586;2023-02-02T14:45:13;2.83;;;0.90;;
71164;SDS011;58859;55.132;-1.586;2023-02-02T14:50:16;1.42;;;0.50;;
71164;SDS011;58859;55.132;-1.586;2023-02-02T14:55:50;1.10;;;0.60;;
71164;SDS011;58859;55.132;-1.586;2023-02-02T14:58:32;0.75;;;0.60;;
71164;SDS011;58859;55.132;-1.586;2023-02-02T15:06:43;0.77;;;0.50;;
71164;SDS011;58859;55.132;-1.586;2023-02-02T15:22:47;1.33;;;0.50;;
71164;SDS011;58859;55.132;-1.586;2023-02-02T15:25:26;2.03;;;0.63;;
71164;SDS011;58859;55.132;-1.586;2023-02-02T15:28:08;0.50;;;0.50;;
71164;SDS011;58859;55.132;-1.586;2023-02-02T15:30:40;1.27;;;0.75;;
71164;SDS011;58859;55.132;-1.586;2023-02-02T15:33:13;4.30;;;1.07;;
71164;SDS011;58859;55.132;-1.586;2023-02-02T15:36:03;6.22;;;1.95;;
71164;SDS011;58859;55.132;-1.586;2023-02-02T15:38:34;3.10;;;0.70;;
71164;SDS011;58859;55.132;-1.586;2023-02-02T15:41:06;0.75;;;0.70;;
71164;SDS011;58859;55.132;-1.586;2023-02-02T15:43:36;2.35;;;0.80;;
71164;SDS011;58859;55.132;-1.586;2023-02-02T15:46:08;1.10;;;0.60;;
71164;SDS011;58859;55.132;-1.586;2023-02-02T15:48:35;0.90;;;0.73;;
71164;SDS011;58859;55.132;-1.586;2023-02-02T15:51:02;3.13;;;1.30;;
71164;SDS011;58859;55.132;-1.586;2023-02-02T15:53:43;1.23;;;0.75;;
71164;SDS011;58859;55.132;-1.586;2023-02-02T15:56:16;0.82;;;0.82;;
71164;SDS011;58859;55.132;-1.586;2023-02-02T15:58:49;3.13;;;1.30;;
71164;SDS011;58859;55.132;-1.586;2023-02-02T16:01:17;4.63;;;1.17;;
71164;SDS011;58859;55.132;-1.586;2023-02-02T16:06:31;5.78;;;1.50;;
71164;SDS011;58859;55.132;-1.586;2023-02-02T16:08:58;3.72;;;1.50;;
71164;SDS011;58859;55.132;-1.586;2023-02-02T16:11:26;2.13;;;0.93;;
71164;SDS011;58859;55.132;-1.586;2023-02-02T16:16:34;2.25;;;1.38;;
71164;SDS011;58859;55.132;-1.586;2023-02-02T16:21:30;4.05;;;1.30;;
71164;SDS011;58859;55.132;-1.586;2023-02-02T16:23:56;1.67;;;1.17;;
71164;SDS011;58859;55.132;-1.586;2023-02-02T16:26:23;1.98;;;1.15;;
71164;SDS011;58859;55.132;-1.586;2023-02-02T16:28:50;1.67;;;0.85;;
71164;SDS011;58859;55.132;-1.586;2023-02-02T16:31:15;5.57;;;1.10;;
71164;SDS011;58859;55.132;-1.586;2023-02-02T16:33:44;1.30;;;1.20;;
71164;SDS011;58859;55.132;-1.586;2023-02-02T16:36:23;4.05;;;0.77;;
71164;SDS011;58859;55.132;-1.586;2023-02-02T16:38:50;2.28;;;0.60;;
71164;SDS011;58859;55.132;-1.586;2023-02-02T16:41:30;2.97;;;1.07;;
71164;SDS011;58859;55.132;-1.586;2023-02-02T16:47:03;1.55;;;0.90;;
71164;SDS011;58859;55.132;-1.586;2023-02-02T16:49:30;5.40;;;1.50;;
71164;SDS011;58859;55.132;-1.586;2023-02-02T16:52:12;4.97;;;2.00;;
71164;SDS011;58859;55.132;-1.586;2023-02-02T16:54:50;1.77;;;1.33;;
71164;SDS011;58859;55.132;-1.586;2023-02-02T16:57:20;1.27;;;1.05;;
71164;SDS011;58859;55.132;-1.586;2023-02-02T16:59:52;2.20;;;0.90;;
71164;SDS011;58859;55.132;-1.586;2023-02-02T17:05:06;2.83;;;1.10;;
71164;SDS011;58859;55.132;-1.586;2023-02-02T17:07:44;4.50;;;1.13;;
71164;SDS011;58859;55.132;-1.586;2023-02-02T17:10:28;2.28;;;0.95;;
71164;SDS011;58859;55.132;-1.586;2023-02-02T17:12:56;0.50;;;0.50;;
71164;SDS011;58859;55.132;-1.586;2023-02-02T17:15:24;0.85;;;0.50;;
71164;SDS011;58859;55.132;-1.586;2023-02-02T17:17:55;2.63;;;1.00;;
71164;SDS011;58859;55.132;-1.586;2023-02-02T17:20:21;1.33;;;0.63;;
71164;SDS011;58859;55.132;-1.586;2023-02-02T17:22:51;1.50;;;0.80;;
71164;SDS011;58859;55.132;-1.586;2023-02-02T17:25:24;1.85;;;0.68;;
71164;SDS011;58859;55.132;-1.586;2023-02-02T17:27:53;2.90;;;1.00;;
71164;SDS011;58859;55.132;-1.586;2023-02-02T17:30:18;1.07;;;0.83;;
71164;SDS011;58859;55.132;-1.586;2023-02-02T17:32:44;2.67;;;1.38;;
71164;SDS011;58859;55.132;-1.586;2023-02-02T17:35:13;3.27;;;1.10;;
71164;SDS011;58859;55.132;-1.586;2023-02-02T17:37:40;1.73;;;0.70;;